Mitchellville, Iowa
Current Conditions -  °F | °C
As of 3:15 PM on Friday 24 Oct 2014 (Local Time) from KIKV Reporting Station
Broken Clouds Broken Clouds  
Wind Chill: 66°   Ceiling: 1900
Heat Index: 66°   Visibility: 8mi
Dew Point: 63°   Wind: 9mph
Humidity: 88%   Direction: 170°S
Pressure: 29.88"   Gusts: NA
Location:  41.67°N, 93.36°W
Report Text: KIKV 242015Z AUTO 17008KT 8SM SCT013 BKN019 19/17 A2988 RMK AO2
Loading
Personal Weather Stations






























Interactive Weather Map
Tropical Storm Tracking
New forecast layout! Learn more

10-Day Weather Forecast

Advertisements
Track Severe Weather on mobile